Weather observations for the past three days for
Clarion
Imperial (Metric)
Date Time (cdt) Wind (mph) Vis. (mi.) Weather Sky Cond. Temperature (ºF) Relative Humidity Wind Chill (°F) Heat Index (°F) Pressure Precipitation (in)
Air Dwpt 6 hour altimeter (in) sea level (mb) 1 hr 3 hr 6 hr
Max. Min.
05 12:55 E 9 10.00 Fair CLR 78.8 75.2 89% 82 30.02 0.0
05 12:35 NE 8 10.00 Fair CLR 78.8 77 94% 83 30.04 0.0
05 12:15 NE 9 G 16 10.00 Fair CLR 78.8 75.2 89% 82 30.03 0.0
05 11:55 NE 15 G 22 10.00 Fair CLR 80.6 78.8 94% 88 30.03 0.0
05 11:35 N 10 10.00 Partly Cloudy FEW017 SCT023 78.8 78.8 100% 83 30.05 0.0
05 11:15 NW 12 G 21 10.00 Mostly Cloudy BKN016 BKN021 BKN030 77 77 100% 78 30.07 0.0
05 10:55 Vrbl 6 10.00 A Few Clouds FEW041 78.8 78.8 100% 83 30.05 0.0
05 10:35 N 6 10.00 Fair CLR 78.8 78.8 100% 83 30.04 0.0
05 10:15 N 5 10.00 A Few Clouds FEW040 77 77 100% 78 30.03 0.0
05 09:55 Calm 10.00 Partly Cloudy SCT039 77 77 100% 78 30.03 0.0
05 09:35 N 3 10.00 Fair CLR 77 77 100% 78 30.02 0.0
05 09:15 Calm 10.00 Fair CLR 75.2 75.2 100% 73 30.02 0.0
05 08:55 Vrbl 3 10.00 Fair CLR 75.2 75.2 100% 73 30.01 0.0
05 08:35 Calm 10.00 Fair CLR 75.2 75.2 100% 73 30 0.0
05 08:15 E 5 10.00 Fair CLR 73.4 73.4 100% 29.99 0.0
05 07:55 Calm 10.00 Fair CLR 73.4 73.4 100% 29.98 0.0
05 07:35 Calm 10.00 Fair CLR 71.6 71.6 100% 29.97 0.0
05 07:15 E 3 9.00 Fair CLR 71.6 71.6 100% 29.96 0.0
05 06:55 E 5 9.00 Fair CLR 71.6 71.6 100% 29.96 0.0
05 06:35 NE 5 10.00 Fair CLR 71.6 71.6 100% 29.96 0.0
05 06:15 NE 5 9.00 Fair CLR 71.6 71.6 100% 29.96 0.0
05 05:55 E 7 8.00 Fair CLR 73.4 73.4 100% 29.95 0.0
05 05:35 E 7 7.00 A Few Clouds FEW040 FEW048 71.6 71.6 100% 29.95 0.0
05 05:15 E 5 6.00 Fog/Mist FEW038 FEW047 71.6 71.6 100% 29.95 0.0
05 04:55 NE 5 7.00 A Few Clouds FEW046 71.6 71.6 100% 29.95 0.0
05 04:35 E 3 6.00 Fog/Mist FEW046 73.4 73.4 100% 29.93 0.0
05 04:15 Calm 6.00 Fog/Mist CLR 73.4 73.4 100% 29.93 0.0
05 03:55 E 5 7.00 Fair CLR 73.4 73.4 100% 29.94 0.0
05 03:35 E 5 8.00 A Few Clouds FEW040 FEW047 73.4 73.4 100% 29.94 0.0
05 03:15 E 3 7.00 A Few Clouds FEW044 73.4 73.4 100% 29.95 0.0
05 02:55 Calm 7.00 Fair CLR 73.4 73.4 100% 29.94 0.0
05 02:35 Calm 7.00 Fair CLR 73.4 73.4 100% 29.95 0.0
05 02:15 Calm 7.00 A Few Clouds FEW046 73.4 73.4 100% 29.95 0.0
05 01:55 Calm 7.00 A Few Clouds FEW045 73.4 73.4 100% 29.95 0.0
05 01:35 E 5 7.00 Fair CLR 73.4 73.4 100% 29.96 0.0
05 01:15 E 5 9.00 Fair CLR 75.2 75.2 100% 73 29.96 0.0
05 00:55 E 5 8.00 Fair CLR 75.2 75.2 100% 73 29.95 0.0
05 00:35 E 5 10.00 Fair CLR 75.2 75.2 100% 73 29.94 0.0
05 00:15 E 6 10.00 Fair CLR 75.2 75.2 100% 73 29.94 0.0
04 23:55 E 6 10.00 Fair CLR 75.2 75.2 100% 73 29.94 0.0
04 23:35 E 6 10.00 Fair CLR 75.2 75.2 100% 73 29.94 0.0
04 23:15 E 5 10.00 A Few Clouds FEW050 77 77 100% 78 29.94 0.0
04 22:55 E 5 10.00 A Few Clouds FEW050 77 77 100% 78 29.94 0.0
04 22:35 E 5 10.00 Fair CLR 77 77 100% 78 29.94 0.0
04 22:15 E 5 10.00 Fair CLR 77 77 100% 78 29.94 0.0
04 21:55 SE 6 10.00 Fair CLR 80.6 80.6 100% 89 29.93 0.0
04 21:35 SE 6 10.00 Fair CLR 80.6 80.6 100% 89 29.93 0.0
04 21:15 SE 5 10.00 A Few Clouds FEW048 78.8 78.8 100% 83 29.93 0.0
04 20:55 SE 5 10.00 Mostly Cloudy SCT042 BKN048 80.6 80.6 100% 89 29.92 0.0
04 20:35 E 5 10.00 Mostly Cloudy BKN041 BKN047 80.6 80.6 100% 89 29.92 0.0
04 20:15 SE 6 10.00 Fair CLR 80.6 80.6 100% 89 29.91 0.0
04 19:55 E 6 10.00 Fair CLR 82.4 82.4 100% 96 29.91 0.0
04 19:35 SE 3 10.00 Fair CLR 84.2 84.2 100% 104 29.91 0.0
04 19:15 SE 3 10.00 Fair CLR 86 82.4 89% 105 29.91 0.0
04 18:55 S 3 10.00 Fair CLR 87.8 80.6 79% 105 29.91 0.0
04 18:35 S 3 10.00 Fair CLR 89.6 78.8 71% 105 29.9 0.0
04 18:15 S 5 10.00 Fair CLR 89.6 78.8 71% 105 29.9 0.0
04 17:55 S 5 10.00 Fair CLR 89.6 78.8 71% 105 29.9 0.0
04 17:35 S 6 10.00 Fair CLR 89.6 78.8 71% 105 29.9 0.0
04 17:15 S 8 10.00 Fair CLR 89.6 78.8 71% 105 29.89 0.0
04 16:55 S 8 10.00 Fair CLR 89.6 78.8 71% 105 29.89 0.0
04 16:35 S 8 10.00 Partly Cloudy FEW034 SCT046 91.4 78.8 67% 108 29.89 0.0
04 16:15 Vrbl 7 10.00 Mostly Cloudy BKN035 BKN045 89.6 78.8 71% 105 29.9 0.0
04 15:55 Calm 10.00 Mostly Cloudy BKN036 BKN044 89.6 78.8 71% 105 29.9 0.0
04 15:35 S 7 10.00 Mostly Cloudy BKN035 87.8 77 70% 100 29.9 0.0
04 15:15 S 7 10.00 A Few Clouds FEW034 89.6 78.8 71% 105 29.9 0.0
04 14:55 S 8 10.00 A Few Clouds FEW034 89.6 77 67% 103 29.9 0.0
04 14:35 SE 8 10.00 Partly Cloudy SCT032 89.6 77 67% 103 29.9 0.0
04 14:15 S 5 10.00 Partly Cloudy SCT033 87.8 77 70% 100 29.9 0.0
04 13:55 S 9 10.00 Fair CLR 89.6 77 67% 103 29.89 0.0
04 13:35 S 6 10.00 Fair CLR 87.8 77 70% 100 29.9 0.0
04 13:15 S 7 10.00 A Few Clouds FEW110 87.8 78.8 75% 102 29.9 0.0
04 12:55 Vrbl 3 10.00 A Few Clouds FEW110 86 77 75% 97 29.9 0.0
04 12:35 Vrbl 5 10.00 Fair CLR 87.8 77 70% 100 29.9 0.0
04 12:15 S 9 10.00 Fair CLR 87.8 78.8 75% 102 29.9 0.0
04 11:55 SW 6 10.00 Fair CLR 86 78.8 79% 99 29.9 0.0
04 11:35 S 7 10.00 Fair CLR 86 78.8 79% 99 29.9 0.0
04 11:15 Vrbl 6 10.00 Fair CLR 84.2 78.8 84% 96 29.9 0.0
04 10:55 SW 6 10.00 Fair CLR 84.2 78.8 84% 96 29.9 0.0
04 10:35 S 7 10.00 Fair CLR 82.4 78.8 89% 92 29.89 0.0
04 10:15 SW 5 10.00 Fair CLR 82.4 78.8 89% 92 29.9 0.0
04 09:55 S 7 10.00 Fair CLR 80.6 78.8 94% 88 29.89 0.0
04 09:35 S 7 10.00 Fair CLR 80.6 78.8 94% 88 29.89 0.0
04 09:15 S 7 10.00 Fair CLR 78.8 78.8 100% 83 29.89 0.0
04 08:55 S 7 10.00 Fair CLR 78.8 78.8 100% 83 29.89 0.0
04 08:35 Vrbl 7 10.00 Fair CLR 77 77 100% 78 29.89 0.0
04 08:15 S 7 10.00 Fair CLR 75.2 75.2 100% 73 29.89 0.0
04 07:55 S 5 10.00 Fair CLR 73.4 73.4 100% 29.88 0.0
04 07:35 S 7 10.00 Fair CLR 73.4 73.4 100% 29.88 0.0
04 07:15 S 6 10.00 Fair CLR 73.4 73.4 100% 29.88 0.0
04 06:55 S 7 0.00 NULL NULL 73.4 73.4 100% 29.88 0.0
04 06:35 S 6 10.00 Partly Cloudy SCT095 73.4 73.4 100% 29.87 0.0
04 06:15 S 6 10.00 Overcast OVC095 73.4 73.4 100% 29.87 0.0
04 05:55 S 6 10.00 Mostly Cloudy BKN095 BKN120 73.4 73.4 100% 29.87 0.0
04 05:35 S 7 10.00 Mostly Cloudy BKN090 BKN120 73.4 73.4 100% 29.86 0.0
04 05:15 S 7 10.00 Mostly Cloudy BKN090 73.4 73.4 100% 29.87 0.0
04 04:55 S 7 10.00 Partly Cloudy SCT090 73.4 73.4 100% 29.86 0.0
04 04:35 S 7 10.00 Partly Cloudy SCT085 73.4 73.4 100% 29.86 0.0
04 04:15 S 7 10.00 Mostly Cloudy BKN080 73.4 73.4 100% 29.86 0.0
04 03:55 S 6 10.00 Overcast OVC085 73.4 73.4 100% 29.86 0.0
04 03:35 S 7 10.00 Mostly Cloudy BKN085 73.4 73.4 100% 29.86 0.0
04 03:15 S 7 10.00 Mostly Cloudy BKN085 BKN110 73.4 73.4 100% 29.86 0.0
04 02:55 S 6 10.00 Overcast OVC080 73.4 73.4 100% 29.86 0.0
04 02:35 S 7 10.00 Overcast OVC075 75.2 75.2 100% 73 29.86 0.0
04 02:15 S 6 10.00 Mostly Cloudy FEW060 BKN070 73.4 73.4 100% 29.86 0.0
04 01:55 S 6 10.00 Partly Cloudy FEW060 SCT070 75.2 75.2 100% 73 29.86 0.0
04 01:35 S 7 10.00 Partly Cloudy SCT060 73.4 73.4 100% 29.86 0.0
04 01:15 S 6 10.00 Mostly Cloudy BKN060 73.4 73.4 100% 29.86 0.0
04 00:55 S 6 10.00 Partly Cloudy SCT055 75.2 75.2 100% 73 29.86 0.0
04 00:35 S 7 10.00 A Few Clouds FEW055 75.2 75.2 100% 73 29.86 0.0
04 00:15 S 7 10.00 A Few Clouds FEW060 75.2 75.2 100% 73 29.85 0.0
03 23:55 S 8 10.00 Partly Cloudy SCT055 75.2 75.2 100% 73 29.85 0.0
03 23:35 S 8 10.00 A Few Clouds FEW055 77 77 100% 78 29.85 0.0
03 23:15 S 9 10.00 Fair CLR 77 77 100% 78 29.85 0.0
03 22:55 S 9 10.00 Fair CLR 77 77 100% 78 29.85 0.0
03 22:35 S 9 10.00 Fair CLR 77 77 100% 78 29.85 0.0
03 22:15 S 8 10.00 Fair CLR 78.8 78.8 100% 83 29.85 0.0
03 21:55 S 9 10.00 Fair CLR 77 77 100% 78 29.85 0.0
03 21:35 S 7 10.00 Fair CLR 77 77 100% 78 29.85 0.0
03 21:15 S 7 10.00 Fair CLR 78.8 78.8 100% 83 29.85 0.0
03 20:55 S 5 10.00 Fair CLR 78.8 78.8 100% 83 29.84 0.0
03 20:35 S 6 10.00 Fair CLR 77 77 100% 78 29.84 0.0
03 20:15 S 5 10.00 Fair CLR 78.8 78.8 100% 83 29.83 0.0
03 19:55 S 6 10.00 Fair CLR 80.6 80.6 100% 89 29.83 0.0
03 19:35 S 6 10.00 Fair CLR 80.6 80.6 100% 89 29.82 0.0
03 19:15 S 7 10.00 Fair CLR 84.2 82.4 94% 101 29.82 0.0
03 18:55 S 8 10.00 Fair CLR 86 80.6 84% 102 29.82 0.0
03 18:35 S 10 10.00 Fair CLR 86 78.8 79% 99 29.81 0.0
03 18:15 S 13 10.00 Fair CLR 86 78.8 79% 99 29.81 0.0
03 17:55 S 12 G 21 10.00 Fair CLR 86 77 75% 97 29.81 0.0
03 17:35 S 17 G 24 10.00 Fair CLR 87.8 77 70% 100 29.81 0.0
03 17:15 S 15 G 23 10.00 Fair CLR 87.8 75.2 66% 98 29.81 0.0
03 16:55 S 17 G 25 10.00 Fair CLR 87.8 75.2 66% 98 29.81 0.0
03 16:35 S 14 G 22 10.00 Fair CLR 86 77 75% 97 29.81 0.0
03 16:15 S 15 G 23 10.00 Fair CLR 86 75.2 70% 95 29.82 0.0
03 15:55 S 18 G 24 10.00 Fair CLR 86 73.4 66% 93 29.82 0.0
03 15:35 S 17 G 25 10.00 Fair CLR 86 73.4 66% 93 29.82 0.0
03 15:15 S 18 G 26 10.00 Fair CLR 86 73.4 66% 93 29.82 0.0
03 14:55 S 16 G 24 10.00 Fair CLR 84.2 73.4 70% 91 29.83 0.0
03 14:35 S 13 10.00 Fair CLR 80.6 78.8 94% 88 29.83 0.0
03 14:15 SE 14 G 20 10.00 Fair CLR 77 77 100% 78 29.83 0.0
03 13:55 S 12 G 18 10.00 Fair CLR 75.2 75.2 100% 73 29.85 0.0
03 13:35 S 14 G 21 10.00 Fair CLR 75.2 75.2 100% 73 29.86 0.0
03 13:15 S 17 G 25 10.00 A Few Clouds FEW065 75.2 75.2 100% 73 29.87 0.0
03 12:55 S 15 G 25 10.00 Fair CLR 73.4 73.4 100% 29.87 0.0
03 12:35 S 18 6.00 Fog/Mist FEW055 FEW065 FEW085 73.4 73.4 100% 29.89 0.0
03 12:15 S 14 G 21 9.00 Fair CLR 73.4 73.4 100% 29.9 0.0
03 11:55 SE 12 G 20 10.00 Fair CLR 73.4 73.4 100% 29.91 0.0 0.01
03 11:35 SE 14 9.00 Fair CLR 73.4 73.4 100% 29.91 0.0
03 11:15 SE 8 8.00 Fair CLR 71.6 71.6 100% 29.93 0.0
03 10:55 E 8 10.00 Fair CLR 71.6 71.6 100% 29.93 0.0
03 10:35 SE 9 10.00 Fair CLR 71.6 71.6 100% 29.93 0.0
03 10:15 SE 7 8.00 Fair CLR 71.6 71.6 100% 29.93 0.0
03 09:55 NE 5 10.00 Fair CLR 71.6 71.6 100% 29.94 0.0
03 09:35 Calm 10.00 Partly Cloudy FEW019 FEW026 SCT060 71.6 71.6 100% 29.94 0.0
03 09:15 SE 9 9.00 Mostly Cloudy SCT035 SCT065 BKN120 71.6 71.6 100% 29.92 0.0
03 08:55 Calm 10.00 Partly Cloudy FEW075 FEW095 SCT120 73.4 73.4 100% 29.93 0.0
03 08:35 E 12 10.00 Fair CLR 75.2 73.4 94% 74 29.9 0.0
03 08:15 SE 10 10.00 Partly Cloudy FEW075 FEW090 SCT120 73.4 73.4 100% 29.9 0.0
03 07:55 E 8 10.00 Fair CLR 73.4 73.4 100% 29.91 0.0
03 07:35 E 10 10.00 A Few Clouds FEW060 FEW110 73.4 73.4 100% 29.91 0.0
03 07:15 E 10 10.00 A Few Clouds FEW110 73.4 73.4 100% 29.91 0.0
03 06:55 E 6 10.00 A Few Clouds FEW120 73.4 73.4 100% 29.92 0.0
03 06:35 E 6 10.00 Mostly Cloudy SCT100 BKN120 73.4 73.4 100% 29.9 0.0
03 06:15 E 6 10.00 Mostly Cloudy FEW050 SCT070 BKN100 73.4 73.4 100% 29.9 0.0
03 05:55 Calm 10.00 Mostly Cloudy FEW065 SCT075 BKN085 73.4 73.4 100% 29.91 0.0
03 05:35 N 7 10.00 Overcast FEW049 SCT070 OVC110 73.4 73.4 100% 29.91 0.0
03 05:15 N 6 10.00 Overcast FEW045 SCT080 OVC100 75.2 75.2 100% 73 29.91 0.0
03 04:55 NW 9 G 17 10.00 Mostly Cloudy FEW047 SCT065 BKN075 75.2 75.2 100% 73 29.91 0.0
03 04:35 NW 8 G 17 10.00 Mostly Cloudy FEW044 SCT065 BKN075 77 77 100% 78 29.91 0.0
03 04:15 SE 3 10.00 Overcast FEW060 SCT080 OVC100 77 77 100% 78 29.87 0.0
03 03:55 SE 7 10.00 Partly Cloudy SCT110 77 77 100% 78 29.87 0.0
03 03:35 SE 8 10.00 Fair CLR 78.8 77 94% 83 29.86 0.0
03 03:15 Calm 10.00 Fair CLR 78.8 77 94% 83 29.87 0.0
03 02:55 E 5 10.00 Fair CLR 75.2 75.2 100% 73 29.86 0.0
03 02:35 NE 5 10.00 A Few Clouds FEW039 FEW065 FEW085 75.2 75.2 100% 73 29.87 0.0
03 02:15 NE 6 10.00 Mostly Cloudy FEW037 SCT065 BKN100 75.2 75.2 100% 73 29.88 0.0
03 01:55 NW 16 G 28 10.00 Mostly Cloudy FEW048 SCT065 BKN100 75.2 75.2 100% 73 29.89 0.0
03 01:35 S 7 10.00 Mostly Cloudy FEW045 FEW060 BKN120 75.2 75.2 100% 73 29.86 0.0
03 01:15 S 6 10.00 Mostly Cloudy BKN120 75.2 75.2 100% 73 29.86 0.0
03 00:55 S 6 10.00 Fair CLR 75.2 75.2 100% 73 29.86 0.0
03 00:35 S 5 10.00 Fair CLR 75.2 75.2 100% 73 29.86 0.0
03 00:15 S 6 10.00 Fair CLR 75.2 75.2 100% 73 29.86 0.0
02 23:55 S 6 10.00 Fair CLR 75.2 75.2 100% 73 29.86 0.0
02 23:35 S 6 10.00 Fair CLR 75.2 75.2 100% 73 29.86 0.0
02 23:15 S 6 10.00 Fair CLR 77 77 100% 78 29.86 0.0
02 22:55 SE 6 10.00 Fair CLR 77 77 100% 78 29.86 0.0
02 22:35 SE 6 10.00 Fair CLR 77 77 100% 78 29.86 0.0
02 22:15 SE 6 10.00 Fair CLR 77 77 100% 78 29.86 0.0
02 21:55 SE 6 10.00 Fair CLR 77 77 100% 78 29.86 0.0
02 21:35 SE 7 10.00 Fair CLR 77 77 100% 78 29.86 0.0
02 21:15 SE 7 10.00 Fair CLR 77 77 100% 78 29.86 0.0
02 20:55 SE 8 10.00 Fair CLR 78.8 78.8 100% 83 29.85 0.0
02 20:35 SE 8 0.00 NULL NULL 78.8 78.8 100% 83 29.85 0.0
02 20:15 SE 6 10.00 Fair CLR 78.8 78.8 100% 83 29.85 0.0
02 19:55 SE 6 10.00 Fair CLR 80.6 80.6 100% 89 29.85 0.0
02 19:35 SE 5 10.00 Fair CLR 80.6 80.6 100% 89 29.85 0.0
02 19:15 S 5 10.00 Fair CLR 82.4 82.4 100% 96 29.85 0.0
02 18:55 S 6 10.00 Fair CLR 84.2 80.6 89% 98 29.85 0.0
02 18:35 S 7 10.00 Fair CLR 84.2 78.8 84% 96 29.86 0.0
02 18:15 S 6 10.00 Fair CLR 84.2 78.8 84% 96 29.86 0.0
02 17:55 S 5 10.00 Fair CLR 84.2 77 79% 94 29.86 0.0
02 17:35 S 7 10.00 Fair CLR 86 77 75% 97 29.86 0.0
02 17:15 S 9 G 15 10.00 Fair CLR 86 73.4 66% 93 29.86 0.0
02 16:55 S 10 10.00 A Few Clouds FEW120 86 73.4 66% 93 29.86 0.0
02 16:35 S 13 10.00 Fair CLR 87.8 73.4 62% 96 29.87 0.0
02 16:15 S 10 G 16 10.00 Fair CLR 87.8 75.2 66% 98 29.87 0.0
02 15:55 S 10 10.00 Fair CLR 87.8 77 70% 100 29.87 0.0
02 15:35 SE 12 10.00 A Few Clouds FEW120 84.2 75.2 74% 92 29.88 0.0
02 15:15 S 12 G 17 10.00 Fair CLR 86 77 75% 97 29.88 0.0
02 14:55 SE 10 10.00 Fair CLR 84.2 75.2 74% 92 29.89 0.0
02 14:35 S 13 10.00 Fair CLR 86 75.2 70% 95 29.9 0.0
02 14:15 S 12 10.00 Fair CLR 86 75.2 70% 95 29.9 0.0
Date Time (cdt) Wind (mph) Vis. (mi.) Weather Sky Cond. Air Dwpt Max. Min. Relative Humidity Wind Chill (°F) Heat Index (°F) altimeter (in) sea level (mb) 1 hr 3 hr 6 hr
6 hour
Temperature (ºF) Pressure Precipitation (in)